Time;durP1;ratioP1;P1;durP2;ratioP2;P2;SDS_P1;SDS_P2;PMS_P1;PMS_P2;Temp;Humidity;BMP_temperature;BMP_pressure;BME280_temperature;BME280_humidity;BME280_pressure;Samples;Min_cycle;Max_cycle;Signal;HPM_P1;HPM_P2
2022/03/27 00:01:18;;;;;;;8.05;4.32;;;6.90;99.90;;;;;;4971315;28;20408;-82
2022/03/27 00:03:44;;;;;;;8.32;4.18;;;7.30;99.90;;;;;;4982270;28;20057;-82
2022/03/27 00:06:10;;;;;;;8.82;4.80;;;6.60;99.90;;;;;;4985202;28;20112;-81
2022/03/27 00:08:36;;;;;;;8.00;4.45;;;6.60;99.90;;;;;;4980437;28;20034;-82
2022/03/27 00:13:46;;;;;;;7.50;4.55;;;6.50;99.90;;;;;;4981230;28;20049;-82
2022/03/27 00:16:12;;;;;;;8.95;4.85;;;6.60;99.90;;;;;;4973894;28;20047;-82
2022/03/27 00:18:38;;;;;;;8.88;5.05;;;6.50;99.90;;;;;;4988386;28;20125;-82
2022/03/27 00:21:08;;;;;;;12.60;5.07;;;7.10;99.90;;;;;;4985631;28;20124;-82
2022/03/27 00:23:34;;;;;;;8.57;5.35;;;6.50;99.90;;;;;;4987026;28;20046;-82
2022/03/27 00:26:00;;;;;;;10.40;5.15;;;6.50;99.90;;;;;;4982241;28;20034;-82
2022/03/27 00:28:31;;;;;;;10.40;5.13;;;6.50;99.90;;;;;;4990061;28;20077;-84
2022/03/27 00:30:59;;;;;;;8.32;5.40;;;6.60;99.90;;;;;;4979585;28;20472;-84
2022/03/27 00:33:26;;;;;;;10.40;5.40;;;6.80;99.90;;;;;;4986386;28;20378;-84
2022/03/27 00:35:53;;;;;;;12.27;5.05;;;6.70;99.90;;;;;;4998308;28;20050;-84
2022/03/27 00:38:18;;;;;;;13.02;5.75;;;7.30;99.90;;;;;;4985212;28;20121;-84
2022/03/27 00:40:44;;;;;;;12.27;5.75;;;6.60;99.90;;;;;;4979502;28;20125;-83
2022/03/27 00:43:10;;;;;;;10.63;5.88;;;6.70;99.90;;;;;;4962644;28;20042;-84
2022/03/27 00:45:36;;;;;;;12.15;5.28;;;6.70;99.90;;;;;;4971327;28;20041;-82
2022/03/27 00:48:02;;;;;;;14.60;6.03;;;6.70;99.90;;;;;;4988196;28;20468;-81
2022/03/27 00:50:30;;;;;;;14.15;6.10;;;6.70;99.90;;;;;;4987751;28;20073;-82
2022/03/27 00:52:57;;;;;;;9.48;5.75;;;6.80;99.90;;;;;;5003365;28;20438;-82
2022/03/27 00:55:23;;;;;;;13.98;6.10;;;6.70;99.90;;;;;;4983191;28;20382;-82
2022/03/27 00:57:49;;;;;;;12.50;5.85;;;6.80;99.90;;;;;;4978842;28;20034;-82
2022/03/27 01:00:41;;;;;;;12.93;6.45;;;6.80;99.90;;;;;;4979421;28;20125;-82
2022/03/27 01:03:23;;;;;;;13.50;6.40;;;6.80;99.90;;;;;;4978791;28;20097;-84
2022/03/27 01:05:50;;;;;;;11.57;6.15;;;6.80;99.90;;;;;;4990518;28;20358;-84
2022/03/27 01:09:35;;;;;;;9.52;5.80;;;6.80;99.90;;;;;;4977498;28;20034;-84
2022/03/27 01:11:11;;;;;;;11.13;6.30;;;7.20;99.90;;;;;;4974931;28;20289;-84
2022/03/27 01:13:43;;;;;;;11.32;6.40;;;6.90;99.90;;;;;;4990549;28;20082;-84
2022/03/27 01:16:39;;;;;;;13.95;6.30;;;6.80;99.90;;;;;;4960124;28;20046;-84
2022/03/27 01:19:06;;;;;;;11.80;6.47;;;6.90;99.90;;;;;;4975126;28;20057;-84
2022/03/27 01:21:38;;;;;;;12.95;6.72;;;6.90;99.90;;;;;;4992442;28;20045;-84
2022/03/27 01:24:06;;;;;;;11.27;6.65;;;6.90;99.90;;;;;;4990986;28;20042;-84
2022/03/27 01:26:33;;;;;;;11.20;7.07;;;6.90;99.90;;;;;;4974760;28;20480;-84
2022/03/27 01:28:59;;;;;;;15.63;7.22;;;6.90;99.90;;;;;;4975577;28;20042;-84
2022/03/27 01:31:25;;;;;;;11.23;6.90;;;6.90;99.90;;;;;;4928458;28;20075;-84
2022/03/27 01:33:50;;;;;;;19.33;7.30;;;6.90;99.90;;;;;;4962467;28;20055;-84
2022/03/27 01:36:24;;;;;;;13.57;7.07;;;6.90;99.90;;;;;;4931931;28;20086;-82
2022/03/27 01:38:52;;;;;;;18.80;6.90;;;6.90;99.90;;;;;;4962360;28;20097;-82
2022/03/27 01:41:18;;;;;;;12.02;6.82;;;6.80;99.90;;;;;;4945564;28;20042;-82
2022/03/27 01:43:44;;;;;;;14.60;7.30;;;6.80;99.90;;;;;;4961161;28;20086;-82
2022/03/27 01:46:10;;;;;;;17.63;7.50;;;6.80;99.90;;;;;;4960372;28;20043;-81
2022/03/27 01:48:36;;;;;;;14.10;7.45;;;6.90;99.90;;;;;;4962639;28;20046;-81
2022/03/27 01:51:02;;;;;;;14.10;7.68;;;6.90;99.90;;;;;;4980487;28;20478;-82
2022/03/27 01:53:28;;;;;;;16.23;7.32;;;6.80;99.90;;;;;;4959328;28;20438;-82
2022/03/27 01:55:54;;;;;;;13.18;8.25;;;6.80;99.90;;;;;;4958922;28;20055;-82
2022/03/27 01:58:20;;;;;;;16.85;7.70;;;6.80;99.90;;;;;;4959779;28;20074;-81
2022/03/27 02:00:45;;;;;;;13.07;6.80;;;6.80;99.90;;;;;;4956765;28;20141;-81
2022/03/27 02:03:11;;;;;;;13.57;6.45;;;6.80;99.90;;;;;;4949321;28;20101;-82
2022/03/27 02:05:37;;;;;;;13.25;6.72;;;6.80;99.90;;;;;;4962311;28;20503;-82
2022/03/27 02:08:03;;;;;;;15.27;6.53;;;6.80;99.90;;;;;;4979182;28;20050;-82
2022/03/27 02:10:30;;;;;;;11.98;6.97;;;6.70;99.90;;;;;;4962062;28;20148;-82
2022/03/27 02:12:55;;;;;;;20.42;6.85;;;6.60;99.90;;;;;;4953011;29;20110;-82
2022/03/27 02:15:23;;;;;;;11.60;6.35;;;6.60;99.90;;;;;;4953320;28;20047;-82
2022/03/27 02:17:49;;;;;;;11.65;6.05;;;6.70;99.90;;;;;;4953041;29;20047;-81
2022/03/27 02:20:15;;;;;;;13.15;6.72;;;6.60;99.90;;;;;;4964397;28;20047;-82
2022/03/27 02:22:41;;;;;;;14.75;6.15;;;6.50;99.90;;;;;;4977014;28;20094;-82
2022/03/27 02:25:07;;;;;;;13.05;6.07;;;6.40;99.90;;;;;;4962191;28;20034;-83
2022/03/27 02:27:33;;;;;;;14.95;6.32;;;6.30;99.90;;;;;;4961962;28;20047;-84
2022/03/27 02:29:59;;;;;;;12.32;5.57;;;6.20;99.90;;;;;;4941303;28;20110;-83
2022/03/27 02:32:25;;;;;;;14.82;6.68;;;6.10;99.90;;;;;;4961364;28;20101;-83
2022/03/27 02:34:51;;;;;;;14.13;6.18;;;6.60;99.90;;;;;;4970736;28;20494;-83
2022/03/27 02:37:16;;;;;;;13.20;5.32;;;5.80;99.90;;;;;;4972240;28;20043;-83
2022/03/27 02:39:44;;;;;;;15.93;5.72;;;5.70;99.90;;;;;;4970769;28;20098;-83
2022/03/27 02:42:10;;;;;;;14.48;5.80;;;5.60;99.90;;;;;;4970979;28;20125;-81
2022/03/27 02:44:36;;;;;;;11.10;5.07;;;5.50;99.90;;;;;;4971327;28;20039;-81
2022/03/27 02:47:02;;;;;;;13.15;5.60;;;5.30;99.90;;;;;;4971070;28;20035;-81
2022/03/27 02:49:27;;;;;;;13.82;5.50;;;5.20;99.90;;;;;;4971049;28;20041;-81
2022/03/27 02:51:53;;;;;;;11.35;5.65;;;5.10;99.90;;;;;;4970868;28;20035;-81
2022/03/27 02:54:19;;;;;;;12.77;6.10;;;5.00;99.90;;;;;;4974185;28;20117;-81
2022/03/27 02:56:46;;;;;;;12.93;5.90;;;4.90;99.90;;;;;;4970901;28;20093;-81
2022/03/27 02:59:11;;;;;;;9.80;5.65;;;4.80;99.90;;;;;;4972827;28;20481;-83
2022/03/27 03:01:37;;;;;;;13.13;6.13;;;4.70;99.90;;;;;;4985579;28;20141;-83
2022/03/27 03:04:04;;;;;;;14.88;5.90;;;4.70;99.90;;;;;;4971444;28;20524;-83
2022/03/27 03:06:32;;;;;;;10.13;5.50;;;4.50;99.90;;;;;;4983811;28;20093;-83
2022/03/27 03:08:59;;;;;;;13.77;6.18;;;;;;;;;;4969967;28;20038;-83
2022/03/27 03:11:25;;;;;;;10.60;5.22;;;4.40;99.90;;;;;;4970966;28;20117;-83
2022/03/27 03:13:52;;;;;;;13.20;6.68;;;4.30;99.90;;;;;;4954606;28;20126;-83
2022/03/27 03:16:20;;;;;;;14.43;6.05;;;4.30;99.90;;;;;;4991583;28;20042;-81
2022/03/27 03:18:46;;;;;;;14.63;5.65;;;4.50;99.90;;;;;;4981635;28;20536;-81
2022/03/27 03:21:12;;;;;;;11.43;5.65;;;4.20;99.90;;;;;;4977947;28;20039;-81
2022/03/27 03:23:37;;;;;;;12.13;5.60;;;4.20;99.90;;;;;;4968650;28;20126;-81
2022/03/27 03:26:06;;;;;;;15.73;4.38;;;4.00;99.90;;;;;;4955516;28;20102;-81
2022/03/27 03:28:32;;;;;;;14.20;6.35;;;4.00;99.90;;;;;;4970022;28;20045;-81
2022/03/27 03:30:58;;;;;;;16.23;7.13;;;4.50;99.90;;;;;;4968738;28;20039;-81
2022/03/27 03:33:26;;;;;;;18.90;7.25;;;4.00;99.90;;;;;;4969427;28;20059;-81
2022/03/27 03:35:52;;;;;;;15.43;6.75;;;4.00;99.90;;;;;;4954332;28;20106;-81
2022/03/27 03:38:18;;;;;;;13.70;6.45;;;3.90;99.90;;;;;;4986848;28;20034;-81
2022/03/27 03:40:44;;;;;;;16.73;6.65;;;4.50;99.90;;;;;;4954795;28;20043;-81
2022/03/27 03:43:13;;;;;;;12.68;6.57;;;3.90;99.90;;;;;;4971219;28;20049;-81
2022/03/27 03:45:39;;;;;;;14.80;7.15;;;3.80;99.90;;;;;;4971116;28;20045;-81
2022/03/27 03:48:05;;;;;;;14.98;6.68;;;4.20;99.90;;;;;;4969926;28;20130;-81
2022/03/27 03:50:35;;;;;;;12.80;6.53;;;3.80;99.90;;;;;;4956657;28;20059;-81
2022/03/27 03:53:01;;;;;;;11.25;5.63;;;3.80;99.90;;;;;;4986712;28;20145;-81
2022/03/27 03:55:27;;;;;;;15.32;6.93;;;3.80;99.90;;;;;;4998801;28;20038;-81
2022/03/27 03:57:52;;;;;;;12.50;6.72;;;3.80;99.90;;;;;;4987897;28;20057;-81
2022/03/27 04:00:18;;;;;;;12.95;6.63;;;3.80;99.90;;;;;;4971696;28;20045;-81
2022/03/27 04:02:44;;;;;;;12.05;6.50;;;4.50;99.90;;;;;;4973929;28;20125;-81
2022/03/27 04:05:10;;;;;;;12.80;5.90;;;3.90;99.90;;;;;;4976656;28;20038;-84
2022/03/27 04:07:35;;;;;;;16.45;7.13;;;4.00;99.90;;;;;;4974849;28;20035;-84
2022/03/27 04:10:03;;;;;;;19.40;7.50;;;4.00;99.90;;;;;;4987029;28;20481;-84
2022/03/27 04:12:30;;;;;;;16.73;6.32;;;4.40;99.90;;;;;;4986406;28;20043;-84
2022/03/27 04:14:55;;;;;;;13.20;6.75;;;4.10;99.90;;;;;;4973205;28;20042;-84
2022/03/27 04:17:21;;;;;;;16.55;7.32;;;4.20;99.90;;;;;;4996374;28;20173;-84
2022/03/27 04:19:47;;;;;;;15.00;6.93;;;4.20;99.90;;;;;;4997007;28;20042;-83
2022/03/27 04:22:13;;;;;;;12.00;6.72;;;4.20;99.90;;;;;;4995341;28;20042;-82
2022/03/27 04:24:38;;;;;;;16.98;6.90;;;4.20;99.90;;;;;;4956557;28;20094;-81
2022/03/27 04:27:04;;;;;;;14.02;6.70;;;4.20;99.90;;;;;;4953998;28;20465;-81
2022/03/27 04:29:30;;;;;;;15.90;6.82;;;4.20;99.90;;;;;;4952262;28;20031;-82
2022/03/27 04:31:55;;;;;;;14.88;6.90;;;4.20;99.90;;;;;;4970019;28;20038;-81
2022/03/27 04:34:21;;;;;;;18.83;6.97;;;4.10;99.90;;;;;;4954240;28;20061;-81
2022/03/27 04:36:47;;;;;;;20.10;6.70;;;4.10;99.90;;;;;;4952035;28;20126;-81
2022/03/27 04:39:13;;;;;;;17.00;6.57;;;4.10;99.90;;;;;;4970638;28;20043;-83
2022/03/27 04:41:39;;;;;;;13.15;6.43;;;4.00;99.90;;;;;;4954018;28;20397;-83
2022/03/27 04:44:06;;;;;;;13.45;6.22;;;4.00;99.90;;;;;;4968581;28;20105;-83
2022/03/27 04:46:32;;;;;;;16.08;6.10;;;3.90;99.90;;;;;;4955376;28;20118;-83
2022/03/27 04:48:58;;;;;;;18.00;7.25;;;3.80;99.90;;;;;;4974822;28;21328;-83
2022/03/27 04:51:24;;;;;;;14.30;7.25;;;3.80;99.90;;;;;;4972934;28;20045;-83
2022/03/27 04:53:50;;;;;;;19.35;7.28;;;3.80;99.90;;;;;;4959472;28;20034;-83
2022/03/27 04:56:17;;;;;;;16.02;6.25;;;3.70;99.90;;;;;;4974212;28;20070;-82
2022/03/27 04:58:43;;;;;;;16.95;6.90;;;3.70;99.90;;;;;;4972277;28;20050;-81
2022/03/27 05:01:10;;;;;;;22.73;7.10;;;3.70;99.90;;;;;;4972391;28;20153;-81
2022/03/27 05:03:36;;;;;;;17.70;6.97;;;3.60;99.90;;;;;;4973420;28;20417;-81
2022/03/27 05:06:02;;;;;;;14.63;6.55;;;3.60;99.90;;;;;;4947671;28;20035;-81
2022/03/27 05:08:28;;;;;;;11.38;5.90;;;3.70;99.90;;;;;;4990249;28;20090;-81
2022/03/27 05:10:54;;;;;;;16.25;6.03;;;3.50;99.90;;;;;;4973237;28;20039;-81
2022/03/27 05:13:20;;;;;;;14.70;6.25;;;3.50;99.90;;;;;;4989922;28;20126;-81
2022/03/27 05:15:46;;;;;;;13.98;6.65;;;3.40;99.90;;;;;;4972543;28;20047;-80
2022/03/27 05:18:12;;;;;;;11.05;5.45;;;3.40;99.90;;;;;;4976185;28;20053;-81
2022/03/27 05:20:39;;;;;;;10.90;5.35;;;3.40;99.90;;;;;;4957196;28;20061;-81
2022/03/27 05:23:05;;;;;;;9.82;5.25;;;3.40;99.90;;;;;;4973064;28;20375;-81
2022/03/27 05:25:40;;;;;;;9.82;5.57;;;3.30;99.90;;;;;;4972347;28;20031;-81
2022/03/27 05:28:07;;;;;;;10.50;5.10;;;3.30;99.90;;;;;;4973448;28;20362;-81
2022/03/27 05:30:33;;;;;;;10.88;6.30;;;3.30;99.90;;;;;;4955729;28;20078;-81
2022/03/27 05:32:59;;;;;;;10.65;5.53;;;3.50;99.90;;;;;;4955279;28;20093;-81
2022/03/27 05:35:25;;;;;;;12.98;5.68;;;3.20;99.90;;;;;;4972905;28;20129;-81
2022/03/27 05:37:52;;;;;;;9.20;5.35;;;3.20;99.90;;;;;;4974506;28;20047;-81
2022/03/27 05:40:20;;;;;;;8.98;5.28;;;3.20;99.90;;;;;;4989806;28;20653;-81
2022/03/27 05:42:47;;;;;;;7.63;5.15;;;3.20;99.90;;;;;;4988653;28;20545;-81
2022/03/27 05:45:13;;;;;;;8.48;4.90;;;3.20;99.90;;;;;;4956929;28;20126;-81
2022/03/27 05:47:43;;;;;;;10.85;5.72;;;3.20;99.90;;;;;;4959805;28;20038;-81
2022/03/27 05:50:15;;;;;;;8.30;4.85;;;3.30;99.90;;;;;;4990656;28;20457;-81
2022/03/27 05:52:42;;;;;;;8.80;5.05;;;3.30;99.90;;;;;;4979911;28;20133;-81
2022/03/27 05:55:08;;;;;;;10.07;4.80;;;3.30;99.90;;;;;;4976959;28;20078;-81
2022/03/27 05:57:34;;;;;;;11.20;5.38;;;3.30;99.90;;;;;;4971886;28;20054;-81
2022/03/27 06:00:00;;;;;;;12.63;5.10;;;3.40;99.90;;;;;;4977678;28;20408;-81
2022/03/27 06:02:26;;;;;;;10.90;5.25;;;3.40;99.90;;;;;;5002773;28;20038;-84
2022/03/27 06:04:51;;;;;;;8.95;5.07;;;3.60;99.90;;;;;;4992876;28;20481;-84
2022/03/27 06:07:17;;;;;;;9.73;4.97;;;3.50;99.90;;;;;;4982130;28;20121;-84
2022/03/27 06:09:43;;;;;;;10.82;5.07;;;3.50;99.90;;;;;;4965948;28;20046;-84
2022/03/27 06:12:10;;;;;;;17.73;5.38;;;3.70;99.90;;;;;;4974642;28;20446;-85
2022/03/27 06:14:36;;;;;;;10.90;5.10;;;3.70;99.90;;;;;;4975795;28;20512;-84
2022/03/27 06:17:02;;;;;;;12.10;5.03;;;3.90;99.90;;;;;;4974128;28;20744;-84
2022/03/27 06:19:30;;;;;;;16.42;5.32;;;4.00;99.90;;;;;;4971845;28;20448;-82
2022/03/27 06:21:57;;;;;;;14.82;5.60;;;4.30;99.90;;;;;;4972147;28;20126;-82
2022/03/27 06:24:23;;;;;;;13.65;5.55;;;4.80;99.90;;;;;;4973315;28;20106;-82
2022/03/27 06:26:48;;;;;;;15.65;5.15;;;5.20;99.90;;;;;;4972014;28;20842;-82
2022/03/27 06:29:14;;;;;;;12.45;5.18;;;5.70;99.90;;;;;;4955394;28;20043;-82
2022/03/27 06:31:40;;;;;;;15.20;4.82;;;6.20;99.90;;;;;;4971721;28;20079;-82
2022/03/27 06:34:06;;;;;;;17.70;5.00;;;6.80;99.90;;;;;;4933769;28;20137;-83
2022/03/27 06:36:34;;;;;;;25.00;5.13;;;7.50;99.90;;;;;;4963655;28;20038;-85
2022/03/27 06:39:00;;;;;;;22.42;4.85;;;8.30;99.90;;;;;;4960104;28;20074;-85
2022/03/27 06:41:26;;;;;;;24.27;5.38;;;8.90;99.90;;;;;;4981172;28;20046;-85
2022/03/27 06:43:52;;;;;;;17.85;5.15;;;9.60;99.90;;;;;;4958783;28;20055;-85
2022/03/27 06:46:18;;;;;;;21.58;5.07;;;10.10;99.90;;;;;;4942127;28;20039;-85
2022/03/27 06:48:44;;;;;;;21.23;5.35;;;10.70;99.90;;;;;;4977149;28;20049;-85
2022/03/27 06:51:10;;;;;;;18.00;5.07;;;11.20;99.90;;;;;;4977419;28;20397;-85
2022/03/27 06:53:36;;;;;;;18.15;4.60;;;11.60;99.90;;;;;;4963439;28;20101;-84
2022/03/27 06:56:02;;;;;;;22.75;5.07;;;12.00;99.90;;;;;;4932582;29;20038;-84
2022/03/27 06:58:28;;;;;;;19.25;4.70;;;12.40;99.90;;;;;;4971499;28;20039;-84
2022/03/27 07:03:38;;;;;;;28.10;5.85;;;13.00;99.90;;;;;;4978504;28;20137;-84
2022/03/27 07:06:03;;;;;;;19.90;5.28;;;13.40;99.90;;;;;;4963042;28;20094;-84
2022/03/27 07:08:29;;;;;;;20.13;5.53;;;13.70;99.90;;;;;;4960462;28;20126;-84
2022/03/27 07:10:55;;;;;;;26.05;5.95;;;14.10;99.90;;;;;;4940576;29;20043;-84
2022/03/27 07:13:21;;;;;;;25.73;6.15;;;14.50;99.90;;;;;;4976932;28;20050;-84
2022/03/27 07:15:49;;;;;;;24.42;5.90;;;14.90;99.90;;;;;;4930855;29;20047;-85
2022/03/27 07:18:20;;;;;;;19.98;5.45;;;15.20;99.90;;;;;;4926416;29;20055;-85
2022/03/27 07:20:47;;;;;;;21.65;6.03;;;15.70;99.90;;;;;;4966020;28;20043;-85
2022/03/27 07:23:19;;;;;;;19.40;5.97;;;16.10;99.90;;;;;;4947560;29;20043;-85
2022/03/27 07:25:47;;;;;;;24.88;6.13;;;16.60;99.90;;;;;;4970081;28;20485;-87
2022/03/27 07:28:14;;;;;;;23.70;5.97;;;16.90;99.90;;;;;;4965626;28;20086;-87
2022/03/27 07:30:41;;;;;;;19.80;5.82;;;17.10;99.90;;;;;;4964383;28;20038;-87
2022/03/27 07:33:08;;;;;;;25.48;6.38;;;17.40;99.90;;;;;;4942756;28;20063;-88
2022/03/27 07:35:34;;;;;;;27.67;6.70;;;17.90;99.90;;;;;;4971233;28;20038;-87
2022/03/27 07:38:01;;;;;;;20.83;6.28;;;17.90;99.90;;;;;;4959959;28;20070;-87
2022/03/27 07:40:30;;;;;;;21.17;6.15;;;18.30;99.90;;;;;;4967551;28;20501;-87
2022/03/27 07:42:57;;;;;;;20.30;5.97;;;18.60;99.90;;;;;;4966432;28;20043;-87
2022/03/27 07:45:26;;;;;;;23.67;5.65;;;18.90;99.90;;;;;;4982357;28;20039;-87
2022/03/27 07:47:54;;;;;;;20.10;5.70;;;19.10;99.30;;;;;;4966300;28;20058;-87
2022/03/27 07:50:21;;;;;;;18.17;5.70;;;19.30;98.10;;;;;;4967373;28;20053;-87
2022/03/27 07:52:47;;;;;;;24.00;6.30;;;19.40;94.70;;;;;;4970511;28;20042;-87
2022/03/27 07:55:16;;;;;;;21.83;6.32;;;19.60;94.90;;;;;;4969001;28;20445;-87
2022/03/27 07:57:42;;;;;;;17.55;5.45;;;19.80;94.40;;;;;;4966586;28;20382;-87
2022/03/27 08:00:10;;;;;;;22.80;6.60;;;20.10;94.00;;;;;;4968385;28;20054;-85
2022/03/27 08:02:37;;;;;;;21.45;6.10;;;20.50;92.90;;;;;;4967157;28;20109;-85
2022/03/27 08:05:04;;;;;;;17.30;5.75;;;20.90;90.90;;;;;;4952884;28;20053;-85
2022/03/27 08:07:30;;;;;;;22.98;6.15;;;21.00;89.30;;;;;;4967403;28;20085;-85
2022/03/27 08:09:56;;;;;;;22.80;6.50;;;21.10;86.70;;;;;;4953637;28;20512;-84
2022/03/27 08:12:22;;;;;;;18.27;5.55;;;21.30;85.90;;;;;;4947313;28;20039;-84
2022/03/27 08:14:50;;;;;;;19.92;6.15;;;21.50;84.50;;;;;;4984194;28;20101;-86
2022/03/27 08:17:16;;;;;;;19.88;6.38;;;21.80;82.20;;;;;;4965908;28;20042;-86
2022/03/27 08:19:43;;;;;;;20.65;6.10;;;22.00;79.60;;;;;;4963303;28;20043;-86
2022/03/27 08:22:10;;;;;;;19.75;5.78;;;22.30;76.40;;;;;;4951530;28;20043;-86
2022/03/27 08:24:37;;;;;;;20.40;6.18;;;22.40;76.80;;;;;;4972886;28;20046;-87
2022/03/27 08:27:04;;;;;;;19.88;6.55;;;22.60;75.30;;;;;;4989008;28;20038;-86
2022/03/27 08:29:35;;;;;;;18.17;6.05;;;22.80;75.40;;;;;;4972072;28;20042;-87
2022/03/27 08:32:03;;;;;;;20.90;6.85;;;22.80;73.80;;;;;;4974616;28;20121;-87
2022/03/27 08:34:31;;;;;;;22.08;7.25;;;23.10;72.90;;;;;;4952822;28;20058;-87
2022/03/27 08:36:59;;;;;;;22.10;6.97;;;23.10;71.50;;;;;;4950057;28;20082;-87
2022/03/27 08:39:25;;;;;;;22.70;7.00;;;23.20;70.90;;;;;;4965810;28;20553;-88
2022/03/27 08:41:54;;;;;;;23.88;6.65;;;23.50;70.40;;;;;;4952977;28;20170;-88
2022/03/27 08:44:21;;;;;;;23.67;7.15;;;23.80;68.90;;;;;;4966537;28;20355;-88
2022/03/27 08:46:49;;;;;;;26.10;7.40;;;24.10;68.70;;;;;;4965057;28;20390;-87
2022/03/27 08:49:17;;;;;;;20.52;6.68;;;24.20;66.60;;;;;;4935893;29;20178;-87
2022/03/27 08:51:47;;;;;;;21.27;6.75;;;24.30;66.70;;;;;;4929904;29;20118;-86
2022/03/27 08:54:17;;;;;;;20.67;6.43;;;24.50;66.30;;;;;;4952732;28;20101;-85
2022/03/27 08:56:52;;;;;;;17.77;6.32;;;24.60;65.40;;;;;;4952140;29;20054;-86
2022/03/27 08:59:19;;;;;;;19.45;6.03;;;24.70;63.70;;;;;;4948561;29;20506;-86
2022/03/27 09:01:45;;;;;;;18.50;6.55;;;24.60;64.50;;;;;;4954799;28;20498;-87
2022/03/27 09:04:13;;;;;;;18.65;6.88;;;24.80;64.70;;;;;;4953483;29;20039;-85
2022/03/27 09:06:39;;;;;;;23.98;6.75;;;25.10;63.80;;;;;;4955370;29;20035;-86
2022/03/27 09:09:06;;;;;;;17.20;5.88;;;24.90;62.50;;;;;;4954823;29;20035;-86
2022/03/27 09:11:34;;;;;;;20.25;6.10;;;25.30;62.30;;;;;;4953982;28;20041;-86
2022/03/27 09:14:03;;;;;;;25.60;7.28;;;25.50;61.70;;;;;;4935047;29;20494;-87
2022/03/27 09:16:28;;;;;;;23.58;6.70;;;25.60;60.80;;;;;;4953024;29;20127;-87
2022/03/27 09:18:58;;;;;;;22.73;6.60;;;25.50;60.20;;;;;;4965285;28;20456;-87
2022/03/27 09:21:27;;;;;;;21.80;6.32;;;25.90;60.30;;;;;;4970089;28;20556;-87
2022/03/27 09:23:56;;;;;;;19.30;6.15;;;26.20;57.90;;;;;;4954477;29;20039;-87
2022/03/27 09:26:23;;;;;;;18.98;6.18;;;26.10;56.30;;;;;;4952645;29;20035;-87
2022/03/27 09:28:54;;;;;;;19.67;6.25;;;26.10;57.00;;;;;;4938926;29;20434;-87
2022/03/27 09:31:26;;;;;;;21.67;6.38;;;25.90;56.70;;;;;;4955020;29;20371;-87
2022/03/27 09:34:01;;;;;;;19.58;6.97;;;26.30;56.60;;;;;;4964067;28;20379;-87
2022/03/27 09:36:28;;;;;;;19.63;6.45;;;26.40;55.40;;;;;;4974278;28;21215;-87
2022/03/27 09:39:07;;;;;;;19.25;5.78;;;26.30;56.20;;;;;;4974371;28;20043;-87
2022/03/27 09:41:45;;;;;;;18.58;5.88;;;26.20;52.60;;;;;;4970672;28;20105;-88
2022/03/27 09:44:17;;;;;;;18.67;6.45;;;26.60;54.60;;;;;;4972564;28;20042;-88
2022/03/27 09:49:10;;;;;;;20.10;6.30;;;26.80;53.30;;;;;;4967960;28;20442;-87
2022/03/27 09:51:57;;;;;;;20.33;6.40;;;26.80;53.40;;;;;;4948336;28;20045;-87
2022/03/27 09:54:25;;;;;;;19.83;6.63;;;27.10;52.90;;;;;;4933862;28;20047;-87
2022/03/27 09:56:52;;;;;;;17.65;6.15;;;27.10;53.30;;;;;;4967038;28;20047;-85
2022/03/27 09:59:33;;;;;;;17.80;6.30;;;27.30;54.00;;;;;;4949607;28;20047;-86
2022/03/27 10:02:21;;;;;;;15.20;5.75;;;27.30;52.30;;;;;;4971212;28;20046;-85
2022/03/27 10:05:19;;;;;;;17.27;5.60;;;27.40;50.10;;;;;;4931258;28;20045;-85
2022/03/27 10:07:51;;;;;;;18.00;5.43;;;27.60;50.90;;;;;;4929484;28;20051;-85
2022/03/27 10:10:21;;;;;;;17.83;5.75;;;27.70;51.60;;;;;;4947335;28;20110;-85
2022/03/27 10:12:50;;;;;;;20.48;5.78;;;27.90;51.40;;;;;;4949461;28;20043;-84
2022/03/27 10:15:21;;;;;;;16.15;5.18;;;27.90;51.30;;;;;;4948209;28;20377;-84
2022/03/27 10:18:14;;;;;;;13.13;4.45;;;28.10;49.90;;;;;;4970606;28;20047;-84
2022/03/27 10:20:40;;;;;;;15.15;5.18;;;28.00;47.10;;;;;;4963139;28;20078;-84
2022/03/27 10:23:09;;;;;;;13.63;4.85;;;28.10;48.10;;;;;;4946632;28;20085;-85
2022/03/27 10:25:42;;;;;;;13.50;4.50;;;28.20;48.00;;;;;;4950232;28;20046;-84
2022/03/27 10:28:08;;;;;;;11.93;4.72;;;28.10;47.10;;;;;;4949712;28;20043;-85
2022/03/27 10:30:34;;;;;;;15.98;5.68;;;28.20;47.20;;;;;;4937018;28;20070;-85
2022/03/27 10:33:02;;;;;;;14.90;5.10;;;28.40;46.90;;;;;;4947291;28;20102;-85
2022/03/27 10:35:55;;;;;;;13.65;4.60;;;28.50;46.90;;;;;;4948144;28;20055;-85
2022/03/27 10:38:59;;;;;;;14.02;5.15;;;28.80;44.90;;;;;;4968907;28;20422;-85
2022/03/27 10:41:49;;;;;;;13.63;5.30;;;28.90;45.60;;;;;;4970842;28;20107;-85
2022/03/27 10:44:39;;;;;;;13.13;4.93;;;29.10;45.00;;;;;;4965464;28;20046;-84
2022/03/27 10:47:23;;;;;;;12.05;5.13;;;28.90;45.90;;;;;;4969827;28;20059;-85
2022/03/27 10:50:22;;;;;;;13.30;5.00;;;29.00;45.10;;;;;;4945761;28;20043;-86
2022/03/27 10:52:50;;;;;;;15.35;5.47;;;29.40;45.70;;;;;;4946283;28;20413;-86
2022/03/27 10:55:17;;;;;;;11.88;4.22;;;29.40;45.50;;;;;;4964710;28;20043;-87
2022/03/27 10:57:46;;;;;;;10.93;3.95;;;29.30;44.90;;;;;;4948285;28;20035;-86
2022/03/27 11:00:14;;;;;;;10.98;3.70;;;29.40;42.30;;;;;;4945117;28;20051;-86
2022/03/27 11:02:45;;;;;;;9.70;4.00;;;29.50;42.40;;;;;;4944977;28;20481;-86
2022/03/27 11:05:32;;;;;;;11.13;4.30;;;29.50;42.40;;;;;;4944211;28;20090;-87
2022/03/27 11:08:16;;;;;;;12.90;4.07;;;29.40;42.40;;;;;;4939933;29;20094;-87
2022/03/27 11:10:55;;;;;;;13.38;4.30;;;29.70;42.30;;;;;;4944499;28;20045;-86
2022/03/27 11:13:27;;;;;;;11.00;4.03;;;29.80;42.30;;;;;;4934784;29;20050;-87
2022/03/27 11:16:15;;;;;;;11.70;3.92;;;29.80;41.80;;;;;;4949959;28;20046;-86
2022/03/27 11:18:43;;;;;;;12.10;4.20;;;30.00;41.80;;;;;;4950001;28;20409;-85
2022/03/27 11:21:33;;;;;;;12.27;3.88;;;29.80;42.00;;;;;;4955071;28;20038;-84
2022/03/27 11:24:02;;;;;;;15.23;4.43;;;29.70;42.40;;;;;;4939985;28;20045;-84
2022/03/27 11:26:29;;;;;;;11.00;4.15;;;29.60;41.60;;;;;;4939954;28;20082;-85
2022/03/27 11:29:18;;;;;;;10.70;3.95;;;29.80;41.80;;;;;;4941334;28;20078;-84
2022/03/27 11:31:44;;;;;;;10.60;4.43;;;29.90;41.20;;;;;;4944867;28;20061;-85
2022/03/27 11:34:11;;;;;;;12.63;4.35;;;29.60;40.50;;;;;;4946309;28;20038;-85
2022/03/27 11:36:39;;;;;;;11.35;4.50;;;28.70;40.50;;;;;;4944450;28;20062;-85
2022/03/27 11:39:09;;;;;;;10.68;4.45;;;28.90;42.80;;;;;;4962121;28;20063;-84
2022/03/27 11:41:42;;;;;;;11.32;3.90;;;29.10;42.80;;;;;;4949176;28;20043;-84
2022/03/27 11:44:17;;;;;;;12.65;4.13;;;29.30;41.50;;;;;;4957238;28;20094;-84
2022/03/27 11:46:50;;;;;;;;;;;29.30;41.80;;;;;;4943985;28;20054;-84
2022/03/27 11:49:17;;;;;;;12.23;4.30;;;29.20;41.70;;;;;;4930423;28;19926;-84
2022/03/27 11:51:43;;;;;;;11.27;3.97;;;27.90;41.10;;;;;;4944068;28;20042;-87
2022/03/27 11:54:20;;;;;;;11.88;4.07;;;28.10;42.40;;;;;;4946989;28;20509;-86
2022/03/27 11:56:55;;;;;;;15.15;4.40;;;28.20;42.20;;;;;;4969902;28;20395;-87
2022/03/27 11:59:23;;;;;;;11.63;3.67;;;28.20;42.30;;;;;;4934740;28;20051;-86
2022/03/27 12:02:01;;;;;;;11.25;4.25;;;28.50;43.10;;;;;;4964920;28;20133;-87
2022/03/27 12:04:27;;;;;;;12.43;4.25;;;29.00;43.10;;;;;;4947240;28;20047;-86
2022/03/27 12:06:58;;;;;;;13.13;3.97;;;29.20;42.20;;;;;;4944345;28;20517;-86
2022/03/27 12:09:32;;;;;;;11.80;4.30;;;29.40;41.30;;;;;;4969350;28;20043;-87
2022/03/27 12:12:12;;;;;;;12.57;3.63;;;29.20;41.00;;;;;;4947049;28;20469;-87
2022/03/27 12:15:02;;;;;;;10.75;3.55;;;29.10;41.30;;;;;;4953683;28;20482;-86
2022/03/27 12:17:31;;;;;;;11.88;3.92;;;29.20;41.60;;;;;;4967074;28;20049;-87
2022/03/27 12:20:05;;;;;;;8.02;2.95;;;29.10;41.90;;;;;;4947687;28;20046;-87
2022/03/27 12:22:44;;;;;;;12.25;3.72;;;29.20;41.80;;;;;;4935256;28;20077;-87
2022/03/27 12:25:15;;;;;;;9.43;3.50;;;29.30;40.90;;;;;;4954853;28;20204;-84
2022/03/27 12:30:37;;;;;;;11.38;3.55;;;29.60;40.80;;;;;;4954653;28;20066;-84
2022/03/27 12:33:04;;;;;;;12.40;3.70;;;29.30;41.40;;;;;;4968230;28;20516;-84
2022/03/27 12:35:31;;;;;;;11.50;3.60;;;29.30;41.10;;;;;;4952198;28;20077;-84
2022/03/27 12:37:58;;;;;;;11.70;3.78;;;29.30;41.40;;;;;;4933849;28;20109;-84
2022/03/27 12:40:25;;;;;;;8.55;3.17;;;29.20;41.70;;;;;;4968730;28;20070;-85
2022/03/27 12:42:52;;;;;;;13.35;3.90;;;29.10;41.50;;;;;;4948200;28;20114;-86
2022/03/27 12:45:35;;;;;;;13.32;4.15;;;28.60;42.20;;;;;;4935240;28;20038;-85
2022/03/27 12:48:20;;;;;;;10.48;3.40;;;28.60;41.40;;;;;;4941386;28;20059;-86
2022/03/27 12:50:51;;;;;;;12.38;3.90;;;28.30;41.80;;;;;;4951341;28;20178;-86
2022/03/27 12:53:22;;;;;;;11.32;3.70;;;28.40;42.10;;;;;;4961418;28;20381;-86
2022/03/27 12:56:09;;;;;;;12.55;3.67;;;28.50;42.20;;;;;;4941533;29;20050;-85
2022/03/27 12:58:41;;;;;;;11.32;3.85;;;28.40;42.70;;;;;;4962969;28;20050;-84
2022/03/27 13:01:07;;;;;;;12.07;3.40;;;28.30;42.90;;;;;;4955917;29;20129;-84
2022/03/27 13:03:35;;;;;;;14.45;3.92;;;28.20;42.70;;;;;;4939583;29;20065;-84